This is the latest recevied weather packets stored in our database for station/object DL9LA-13. If no packets are shown the sender has not sent any weather packets the latest 10 day(s).
| Time | Temp. | Humidity | Pressure | Rain* | Wind** | Luminosity | Snow |
|---|---|---|---|---|---|---|---|
| 1788145447 | 66° F | 100% | 726.8 mmHg | - | - | - | - |
| 1788144240 | 65° F | 100% | 726.8 mmHg | - | - | - | - |
| 1788143636 | 65° F | 100% | 727.6 mmHg | - | - | - | - |
| 1788143033 | 66° F | 100% | 727.6 mmHg | - | - | - | - |
| 1788139412 | 68° F | 91% | 727.6 mmHg | - | - | - | - |
| 1788137600 | 68° F | 93% | 727.6 mmHg | - | - | - | - |
| 1788136393 | 67° F | 93% | 728.3 mmHg | - | - | - | - |
| 1788135789 | 68° F | 91% | 727.6 mmHg | - | - | - | - |
| 1788135185 | 69° F | 89% | 727.6 mmHg | - | - | - | - |
| 1788132167 | 69° F | 90% | 728.3 mmHg | - | - | - | - |
| 1788131564 | 70° F | 86% | 728.3 mmHg | - | - | - | - |
| 1788130960 | 70° F | 84% | 728.3 mmHg | - | - | - | - |
| 1788123716 | 71° F | 78% | 728.3 mmHg | - | - | - | - |
| 1788121905 | 72° F | 84% | 728.3 mmHg | - | - | - | - |
| 1788121302 | 73° F | 80% | 728.3 mmHg | - | - | - | - |
| 1788120698 | 73° F | 78% | 728.3 mmHg | - | - | - | - |
| 1788120094 | 74° F | 75% | 728.3 mmHg | - | - | - | - |
| 1788119491 | 74° F | 70% | 728.3 mmHg | - | - | - | - |
| 1788118887 | 75° F | 67% | 728.3 mmHg | - | - | - | - |
| 1788112851 | 79° F | 56% | 727.6 mmHg | - | - | - | - |
| 1788109833 | 81° F | 48% | 727.6 mmHg | - | - | - | - |
| 1788105607 | 83° F | 44% | 727.6 mmHg | - | - | - | - |
| 1788097156 | 84° F | 45% | 728.3 mmHg | - | - | - | - |
| 1788092931 | 83° F | 46% | 728.3 mmHg | - | - | - | - |
| 1788082065 | 75° F | 68% | 729.8 mmHg | - | - | - | - |
* Rain since midnight (hover to see other rain measurements)
** Current wind speed in m/s (hover to see current wind gust speed)